Flight Number: AVA1070 Duration: 0:45
Departure: Sofia (LBSF) at 13:45 Distance: 181.847 Nm
Arrival: Burgas (LBBG) at 14:30 Equipment: ATR72

Weather Information
Sofia Observ. , Bulgaria (LBSF) 42-39N 023-23E 595M Aug 14, 2020 - 06:30 PM EDT / 2020.08.14 2230 UTC
Wind: from the SSE (150 degrees) at 3 MPH (3 KT) (direction variable):0
Visibility: greater than 7 mile(s):0 Temperature: 66 F (19 C) Dew Point: 59 F (15 C) Relative Humidity: 77% Pressure (altimeter): 29.97 in. Hg (1015 hPa)
ob: LBSF 142230Z 15003KT 100V180 CAVOK 19/15 Q1015 NOSIG cycle: 22
Sunrise: 03:36 Sunset: 17:25 (UTC)

Burgas, Bulgaria (LBBG) 42-29N 027-29E 28M Aug 14, 2020 - 06:30 PM EDT / 2020.08.14 2230 UTC
Wind: from the SE (140 degrees) at 6 MPH (5 KT):0
Visibility: greater than 7 mile(s):0 Temperature: 71 F (22 C) Dew Point: 62 F (17 C) Relative Humidity: 73% Pressure (altimeter): 29.97 in. Hg (1015 hPa)
ob: LBBG 142230Z 14005KT CAVOK 22/17 Q1015 NOSIG cycle: 22
Sunrise: 03:20 Sunset: 17:08 (UTC)

TAF:2020/08/14 18:18 TAF TAF LBBG 141700Z 1418/1518 11012KT 9999 SCT045 PROB30 TEMPO 1420/1422 SHRA FEW033CB BKN045 BECMG 1423/1501 VRB04KT BECMG 1507/1509 12015KT CAVOK

This route has never been flown.

Route map